sensor_id;sensor_type;location;lat;lon;timestamp;temperature;humidity
24408;DHT22;12542;50.924;4.516;2022-08-19T00:01:34;20.20;99.90
24408;DHT22;12542;50.924;4.516;2022-08-19T00:04:05;20.20;99.90
24408;DHT22;12542;50.924;4.516;2022-08-19T00:06:31;20.10;99.90
24408;DHT22;12542;50.924;4.516;2022-08-19T00:08:58;20.10;99.90
24408;DHT22;12542;50.924;4.516;2022-08-19T00:11:26;20.10;99.90
24408;DHT22;12542;50.924;4.516;2022-08-19T00:13:56;20.10;99.90
24408;DHT22;12542;50.924;4.516;2022-08-19T00:16:23;20.10;99.90
24408;DHT22;12542;50.924;4.516;2022-08-19T00:18:49;20.10;99.90
24408;DHT22;12542;50.924;4.516;2022-08-19T00:21:15;20.00;99.90
24408;DHT22;12542;50.924;4.516;2022-08-19T00:23:43;20.10;99.90
24408;DHT22;12542;50.924;4.516;2022-08-19T00:26:11;20.10;99.90
24408;DHT22;12542;50.924;4.516;2022-08-19T00:28:37;20.10;99.90
24408;DHT22;12542;50.924;4.516;2022-08-19T00:31:05;20.00;99.90
24408;DHT22;12542;50.924;4.516;2022-08-19T00:33:33;20.00;99.90
24408;DHT22;12542;50.924;4.516;2022-08-19T00:36:00;20.00;99.90
24408;DHT22;12542;50.924;4.516;2022-08-19T00:38:26;19.90;99.90
24408;DHT22;12542;50.924;4.516;2022-08-19T00:40:52;19.90;99.90
24408;DHT22;12542;50.924;4.516;2022-08-19T00:43:23;19.90;99.90
24408;DHT22;12542;50.924;4.516;2022-08-19T00:45:51;19.90;99.90
24408;DHT22;12542;50.924;4.516;2022-08-19T00:48:18;19.90;99.90
24408;DHT22;12542;50.924;4.516;2022-08-19T00:50:45;19.90;99.90
24408;DHT22;12542;50.924;4.516;2022-08-19T00:53:15;19.90;99.90
24408;DHT22;12542;50.924;4.516;2022-08-19T00:55:45;20.00;99.90
24408;DHT22;12542;50.924;4.516;2022-08-19T00:58:16;20.00;99.90
24408;DHT22;12542;50.924;4.516;2022-08-19T01:00:42;19.90;99.90
24408;DHT22;12542;50.924;4.516;2022-08-19T01:03:11;20.00;99.90
24408;DHT22;12542;50.924;4.516;2022-08-19T01:05:39;20.10;99.90
24408;DHT22;12542;50.924;4.516;2022-08-19T01:08:07;20.10;99.90
24408;DHT22;12542;50.924;4.516;2022-08-19T01:10:41;20.00;99.90
24408;DHT22;12542;50.924;4.516;2022-08-19T01:13:07;20.00;99.90
24408;DHT22;12542;50.924;4.516;2022-08-19T01:15:42;20.00;99.90
24408;DHT22;12542;50.924;4.516;2022-08-19T01:18:09;20.00;99.90
24408;DHT22;12542;50.924;4.516;2022-08-19T01:20:36;20.00;99.90
24408;DHT22;12542;50.924;4.516;2022-08-19T01:23:02;19.90;99.90
24408;DHT22;12542;50.924;4.516;2022-08-19T01:25:42;19.90;99.90
24408;DHT22;12542;50.924;4.516;2022-08-19T01:28:22;19.90;99.90
24408;DHT22;12542;50.924;4.516;2022-08-19T01:30:50;19.90;99.90
24408;DHT22;12542;50.924;4.516;2022-08-19T01:33:16;19.90;99.90
24408;DHT22;12542;50.924;4.516;2022-08-19T01:35:42;19.80;99.90
24408;DHT22;12542;50.924;4.516;2022-08-19T01:38:19;19.80;99.90
24408;DHT22;12542;50.924;4.516;2022-08-19T01:40:45;19.70;99.90
24408;DHT22;12542;50.924;4.516;2022-08-19T01:43:10;19.70;99.90
24408;DHT22;12542;50.924;4.516;2022-08-19T01:45:38;19.70;99.90
24408;DHT22;12542;50.924;4.516;2022-08-19T01:48:06;19.60;99.90
24408;DHT22;12542;50.924;4.516;2022-08-19T01:50:33;19.60;99.90
24408;DHT22;12542;50.924;4.516;2022-08-19T01:53:01;19.60;99.90
24408;DHT22;12542;50.924;4.516;2022-08-19T01:55:29;19.60;99.90
24408;DHT22;12542;50.924;4.516;2022-08-19T01:58:00;19.50;99.90
24408;DHT22;12542;50.924;4.516;2022-08-19T02:00:30;19.50;99.90
24408;DHT22;12542;50.924;4.516;2022-08-19T02:02:56;19.50;99.90
24408;DHT22;12542;50.924;4.516;2022-08-19T02:05:24;19.40;99.90
24408;DHT22;12542;50.924;4.516;2022-08-19T02:07:50;19.50;99.90
24408;DHT22;12542;50.924;4.516;2022-08-19T02:10:22;19.50;99.90
24408;DHT22;12542;50.924;4.516;2022-08-19T02:12:48;19.50;99.90
24408;DHT22;12542;50.924;4.516;2022-08-19T02:15:15;19.50;99.90
24408;DHT22;12542;50.924;4.516;2022-08-19T02:17:41;19.50;99.90
24408;DHT22;12542;50.924;4.516;2022-08-19T02:20:07;19.40;99.90
24408;DHT22;12542;50.924;4.516;2022-08-19T02:22:33;19.40;99.90
24408;DHT22;12542;50.924;4.516;2022-08-19T02:25:01;19.50;99.90
24408;DHT22;12542;50.924;4.516;2022-08-19T02:27:26;19.40;99.90
24408;DHT22;12542;50.924;4.516;2022-08-19T02:29:53;19.30;99.90
24408;DHT22;12542;50.924;4.516;2022-08-19T02:32:19;19.40;99.90
24408;DHT22;12542;50.924;4.516;2022-08-19T02:34:46;19.30;99.90
24408;DHT22;12542;50.924;4.516;2022-08-19T02:37:12;19.20;99.90
24408;DHT22;12542;50.924;4.516;2022-08-19T02:39:57;19.30;99.90
24408;DHT22;12542;50.924;4.516;2022-08-19T02:42:23;19.30;99.90
24408;DHT22;12542;50.924;4.516;2022-08-19T02:44:49;19.20;99.90
24408;DHT22;12542;50.924;4.516;2022-08-19T02:47:15;19.20;99.90
24408;DHT22;12542;50.924;4.516;2022-08-19T02:49:41;19.20;99.90
24408;DHT22;12542;50.924;4.516;2022-08-19T02:52:07;19.20;99.90
24408;DHT22;12542;50.924;4.516;2022-08-19T02:54:33;19.10;99.90
24408;DHT22;12542;50.924;4.516;2022-08-19T02:56:59;19.10;99.90
24408;DHT22;12542;50.924;4.516;2022-08-19T02:59:25;19.10;99.90
24408;DHT22;12542;50.924;4.516;2022-08-19T03:01:52;19.10;99.90
24408;DHT22;12542;50.924;4.516;2022-08-19T03:04:18;19.10;99.90
24408;DHT22;12542;50.924;4.516;2022-08-19T03:06:46;19.10;99.90
24408;DHT22;12542;50.924;4.516;2022-08-19T03:09:13;19.10;99.90
24408;DHT22;12542;50.924;4.516;2022-08-19T03:11:41;19.00;99.90
24408;DHT22;12542;50.924;4.516;2022-08-19T03:14:08;19.00;99.90
24408;DHT22;12542;50.924;4.516;2022-08-19T03:16:46;19.10;99.90
24408;DHT22;12542;50.924;4.516;2022-08-19T03:19:13;19.00;99.90
24408;DHT22;12542;50.924;4.516;2022-08-19T03:21:39;19.00;99.90
24408;DHT22;12542;50.924;4.516;2022-08-19T03:24:07;18.90;99.90
24408;DHT22;12542;50.924;4.516;2022-08-19T03:26:33;18.90;99.90
24408;DHT22;12542;50.924;4.516;2022-08-19T03:29:04;18.90;99.90
24408;DHT22;12542;50.924;4.516;2022-08-19T03:31:32;18.90;99.90
24408;DHT22;12542;50.924;4.516;2022-08-19T03:33:58;18.80;99.90
24408;DHT22;12542;50.924;4.516;2022-08-19T03:36:26;18.80;99.90
24408;DHT22;12542;50.924;4.516;2022-08-19T03:38:55;18.70;99.90
24408;DHT22;12542;50.924;4.516;2022-08-19T03:41:24;18.70;99.90
24408;DHT22;12542;50.924;4.516;2022-08-19T03:43:52;18.70;99.90
24408;DHT22;12542;50.924;4.516;2022-08-19T03:46:27;18.70;99.90
24408;DHT22;12542;50.924;4.516;2022-08-19T03:48:54;18.70;99.90
24408;DHT22;12542;50.924;4.516;2022-08-19T03:51:32;19.80;99.90
24408;DHT22;12542;50.924;4.516;2022-08-19T03:54:02;18.70;99.90
24408;DHT22;12542;50.924;4.516;2022-08-19T03:56:29;18.70;99.90
24408;DHT22;12542;50.924;4.516;2022-08-19T03:58:57;18.60;99.90
24408;DHT22;12542;50.924;4.516;2022-08-19T04:01:26;18.60;99.90
24408;DHT22;12542;50.924;4.516;2022-08-19T04:03:52;18.60;99.90
24408;DHT22;12542;50.924;4.516;2022-08-19T04:06:24;18.50;99.90
24408;DHT22;12542;50.924;4.516;2022-08-19T04:08:51;18.50;99.90
24408;DHT22;12542;50.924;4.516;2022-08-19T04:11:20;18.60;99.90
24408;DHT22;12542;50.924;4.516;2022-08-19T04:13:47;18.40;99.90
24408;DHT22;12542;50.924;4.516;2022-08-19T04:16:13;18.40;99.90
24408;DHT22;12542;50.924;4.516;2022-08-19T04:18:40;18.40;99.90
24408;DHT22;12542;50.924;4.516;2022-08-19T04:21:08;18.40;99.90
24408;DHT22;12542;50.924;4.516;2022-08-19T04:23:34;18.40;99.90
24408;DHT22;12542;50.924;4.516;2022-08-19T04:26:01;18.30;99.90
24408;DHT22;12542;50.924;4.516;2022-08-19T04:28:28;18.30;99.90
24408;DHT22;12542;50.924;4.516;2022-08-19T04:30:55;18.40;99.90
24408;DHT22;12542;50.924;4.516;2022-08-19T04:33:24;18.40;99.90
24408;DHT22;12542;50.924;4.516;2022-08-19T04:35:52;19.50;99.90
24408;DHT22;12542;50.924;4.516;2022-08-19T04:38:22;18.40;99.90
24408;DHT22;12542;50.924;4.516;2022-08-19T04:40:51;18.40;99.90
24408;DHT22;12542;50.924;4.516;2022-08-19T04:43:37;18.40;99.90
24408;DHT22;12542;50.924;4.516;2022-08-19T04:46:06;18.40;99.90
24408;DHT22;12542;50.924;4.516;2022-08-19T04:48:32;18.40;99.90
24408;DHT22;12542;50.924;4.516;2022-08-19T04:50:58;18.50;99.90
24408;DHT22;12542;50.924;4.516;2022-08-19T04:53:29;18.50;99.90
24408;DHT22;12542;50.924;4.516;2022-08-19T04:55:56;18.60;99.90
24408;DHT22;12542;50.924;4.516;2022-08-19T04:58:28;18.50;99.90
24408;DHT22;12542;50.924;4.516;2022-08-19T05:00:54;18.60;99.90
24408;DHT22;12542;50.924;4.516;2022-08-19T05:03:20;18.60;99.90
24408;DHT22;12542;50.924;4.516;2022-08-19T05:05:47;18.60;99.90
24408;DHT22;12542;50.924;4.516;2022-08-19T05:08:19;18.60;99.90
24408;DHT22;12542;50.924;4.516;2022-08-19T05:10:48;18.70;99.90
24408;DHT22;12542;50.924;4.516;2022-08-19T05:13:18;18.80;99.90
24408;DHT22;12542;50.924;4.516;2022-08-19T05:15:57;18.90;99.90
24408;DHT22;12542;50.924;4.516;2022-08-19T05:18:23;19.30;99.90
24408;DHT22;12542;50.924;4.516;2022-08-19T05:21:12;19.70;99.90
24408;DHT22;12542;50.924;4.516;2022-08-19T05:23:59;20.30;99.90
24408;DHT22;12542;50.924;4.516;2022-08-19T05:26:25;20.50;99.90
24408;DHT22;12542;50.924;4.516;2022-08-19T05:28:56;20.90;99.90
24408;DHT22;12542;50.924;4.516;2022-08-19T05:31:22;21.60;99.90
24408;DHT22;12542;50.924;4.516;2022-08-19T05:33:48;22.20;99.90
24408;DHT22;12542;50.924;4.516;2022-08-19T05:36:15;22.50;99.90
24408;DHT22;12542;50.924;4.516;2022-08-19T05:38:41;23.10;99.90
24408;DHT22;12542;50.924;4.516;2022-08-19T05:41:11;24.00;99.90
24408;DHT22;12542;50.924;4.516;2022-08-19T05:43:40;24.90;99.90
24408;DHT22;12542;50.924;4.516;2022-08-19T05:46:08;25.50;99.90
24408;DHT22;12542;50.924;4.516;2022-08-19T05:48:44;25.90;99.90
24408;DHT22;12542;50.924;4.516;2022-08-19T05:51:12;26.40;99.90
24408;DHT22;12542;50.924;4.516;2022-08-19T05:53:38;26.50;99.90
24408;DHT22;12542;50.924;4.516;2022-08-19T05:56:10;26.80;99.90
24408;DHT22;12542;50.924;4.516;2022-08-19T05:58:40;26.20;99.90
24408;DHT22;12542;50.924;4.516;2022-08-19T06:01:11;25.70;99.90
24408;DHT22;12542;50.924;4.516;2022-08-19T06:03:40;25.30;99.90
24408;DHT22;12542;50.924;4.516;2022-08-19T06:06:08;24.50;99.90
24408;DHT22;12542;50.924;4.516;2022-08-19T06:08:35;24.40;99.90
24408;DHT22;12542;50.924;4.516;2022-08-19T06:14:09;23.40;99.90
24408;DHT22;12542;50.924;4.516;2022-08-19T06:16:37;23.20;99.90
24408;DHT22;12542;50.924;4.516;2022-08-19T06:19:05;23.00;99.90
24408;DHT22;12542;50.924;4.516;2022-08-19T06:21:32;23.10;99.90
24408;DHT22;12542;50.924;4.516;2022-08-19T06:24:03;22.90;99.90
24408;DHT22;12542;50.924;4.516;2022-08-19T06:26:30;22.80;99.90
24408;DHT22;12542;50.924;4.516;2022-08-19T06:28:58;23.00;99.90
24408;DHT22;12542;50.924;4.516;2022-08-19T06:31:27;22.90;99.90
24408;DHT22;12542;50.924;4.516;2022-08-19T06:33:54;22.90;99.90
24408;DHT22;12542;50.924;4.516;2022-08-19T06:36:29;22.80;99.90
24408;DHT22;12542;50.924;4.516;2022-08-19T06:39:01;22.90;99.90
24408;DHT22;12542;50.924;4.516;2022-08-19T06:41:30;22.80;99.90
24408;DHT22;12542;50.924;4.516;2022-08-19T06:43:56;22.70;99.90
24408;DHT22;12542;50.924;4.516;2022-08-19T06:46:24;22.70;99.90
24408;DHT22;12542;50.924;4.516;2022-08-19T06:48:51;22.60;99.90
24408;DHT22;12542;50.924;4.516;2022-08-19T06:51:21;22.70;99.90
24408;DHT22;12542;50.924;4.516;2022-08-19T06:53:49;22.70;99.90
24408;DHT22;12542;50.924;4.516;2022-08-19T06:56:17;22.40;99.90
24408;DHT22;12542;50.924;4.516;2022-08-19T06:58:45;23.00;99.90
24408;DHT22;12542;50.924;4.516;2022-08-19T07:01:12;22.90;99.90
24408;DHT22;12542;50.924;4.516;2022-08-19T07:03:38;23.10;99.90
24408;DHT22;12542;50.924;4.516;2022-08-19T07:06:05;23.10;99.90
24408;DHT22;12542;50.924;4.516;2022-08-19T07:08:33;23.30;99.90
24408;DHT22;12542;50.924;4.516;2022-08-19T07:11:00;23.30;99.90
24408;DHT22;12542;50.924;4.516;2022-08-19T07:13:26;23.40;99.90
24408;DHT22;12542;50.924;4.516;2022-08-19T07:15:52;23.50;99.90
24408;DHT22;12542;50.924;4.516;2022-08-19T07:18:19;23.20;99.90
24408;DHT22;12542;50.924;4.516;2022-08-19T07:20:45;22.90;99.90
24408;DHT22;12542;50.924;4.516;2022-08-19T07:23:12;22.90;99.90
24408;DHT22;12542;50.924;4.516;2022-08-19T07:25:38;22.90;99.90
24408;DHT22;12542;50.924;4.516;2022-08-19T07:28:06;22.80;99.90
24408;DHT22;12542;50.924;4.516;2022-08-19T07:30:36;22.80;99.90
24408;DHT22;12542;50.924;4.516;2022-08-19T07:33:08;22.90;99.90
24408;DHT22;12542;50.924;4.516;2022-08-19T07:35:36;22.90;99.90
24408;DHT22;12542;50.924;4.516;2022-08-19T07:38:02;23.10;99.90
24408;DHT22;12542;50.924;4.516;2022-08-19T07:40:29;23.50;99.90
24408;DHT22;12542;50.924;4.516;2022-08-19T07:42:55;23.90;99.90
24408;DHT22;12542;50.924;4.516;2022-08-19T07:45:21;24.20;99.90
24408;DHT22;12542;50.924;4.516;2022-08-19T07:47:46;24.00;99.90
24408;DHT22;12542;50.924;4.516;2022-08-19T07:50:15;24.10;99.90
24408;DHT22;12542;50.924;4.516;2022-08-19T07:52:41;24.20;99.90
24408;DHT22;12542;50.924;4.516;2022-08-19T07:55:16;24.60;99.90
24408;DHT22;12542;50.924;4.516;2022-08-19T07:57:42;25.00;99.90
24408;DHT22;12542;50.924;4.516;2022-08-19T08:00:11;25.10;99.90
24408;DHT22;12542;50.924;4.516;2022-08-19T08:02:38;25.00;99.90
24408;DHT22;12542;50.924;4.516;2022-08-19T08:05:07;25.10;99.90
24408;DHT22;12542;50.924;4.516;2022-08-19T08:07:51;25.10;99.90
24408;DHT22;12542;50.924;4.516;2022-08-19T08:10:38;24.90;99.90
24408;DHT22;12542;50.924;4.516;2022-08-19T08:13:04;25.00;99.90
24408;DHT22;12542;50.924;4.516;2022-08-19T08:15:31;24.80;99.90
24408;DHT22;12542;50.924;4.516;2022-08-19T08:17:59;24.60;99.90
24408;DHT22;12542;50.924;4.516;2022-08-19T08:20:27;24.40;99.90
24408;DHT22;12542;50.924;4.516;2022-08-19T08:22:56;24.60;99.90
24408;DHT22;12542;50.924;4.516;2022-08-19T08:25:40;24.50;99.90
24408;DHT22;12542;50.924;4.516;2022-08-19T08:28:06;24.40;99.90
24408;DHT22;12542;50.924;4.516;2022-08-19T08:30:35;24.30;99.90
24408;DHT22;12542;50.924;4.516;2022-08-19T08:33:02;24.60;99.90
24408;DHT22;12542;50.924;4.516;2022-08-19T08:35:30;24.80;99.90
24408;DHT22;12542;50.924;4.516;2022-08-19T08:38:02;24.90;99.90
24408;DHT22;12542;50.924;4.516;2022-08-19T08:40:50;25.20;99.90
24408;DHT22;12542;50.924;4.516;2022-08-19T08:46:03;25.00;99.90
24408;DHT22;12542;50.924;4.516;2022-08-19T08:48:44;25.00;99.90
24408;DHT22;12542;50.924;4.516;2022-08-19T08:51:23;24.70;99.90
24408;DHT22;12542;50.924;4.516;2022-08-19T08:53:52;24.60;99.90
24408;DHT22;12542;50.924;4.516;2022-08-19T08:56:20;24.50;99.90
24408;DHT22;12542;50.924;4.516;2022-08-19T08:59:00;24.20;99.90
24408;DHT22;12542;50.924;4.516;2022-08-19T09:01:27;24.20;99.90
24408;DHT22;12542;50.924;4.516;2022-08-19T09:03:54;24.30;99.90
24408;DHT22;12542;50.924;4.516;2022-08-19T09:06:31;24.20;99.90
24408;DHT22;12542;50.924;4.516;2022-08-19T09:09:14;24.30;99.90
24408;DHT22;12542;50.924;4.516;2022-08-19T09:17:02;24.40;99.90
24408;DHT22;12542;50.924;4.516;2022-08-19T09:19:29;24.50;99.90
24408;DHT22;12542;50.924;4.516;2022-08-19T09:21:55;24.50;99.90
24408;DHT22;12542;50.924;4.516;2022-08-19T09:24:21;24.20;99.90
24408;DHT22;12542;50.924;4.516;2022-08-19T09:26:47;24.80;99.90
24408;DHT22;12542;50.924;4.516;2022-08-19T09:29:15;24.90;99.90
24408;DHT22;12542;50.924;4.516;2022-08-19T09:31:40;25.00;99.90
24408;DHT22;12542;50.924;4.516;2022-08-19T09:34:06;25.10;99.90
24408;DHT22;12542;50.924;4.516;2022-08-19T09:36:34;25.00;99.90
24408;DHT22;12542;50.924;4.516;2022-08-19T09:39:05;25.10;99.90
24408;DHT22;12542;50.924;4.516;2022-08-19T09:41:34;25.20;99.90
24408;DHT22;12542;50.924;4.516;2022-08-19T09:44:02;25.00;99.90
24408;DHT22;12542;50.924;4.516;2022-08-19T09:46:29;25.10;99.90
24408;DHT22;12542;50.924;4.516;2022-08-19T09:48:59;24.90;99.90
24408;DHT22;12542;50.924;4.516;2022-08-19T09:51:27;24.90;99.90
24408;DHT22;12542;50.924;4.516;2022-08-19T09:54:00;24.80;99.90
24408;DHT22;12542;50.924;4.516;2022-08-19T09:56:27;24.80;99.90
24408;DHT22;12542;50.924;4.516;2022-08-19T09:58:53;24.90;99.90
24408;DHT22;12542;50.924;4.516;2022-08-19T10:01:23;24.90;99.90
24408;DHT22;12542;50.924;4.516;2022-08-19T10:03:52;24.90;99.90
24408;DHT22;12542;50.924;4.516;2022-08-19T10:06:22;25.00;99.90
24408;DHT22;12542;50.924;4.516;2022-08-19T10:08:49;24.90;99.90
24408;DHT22;12542;50.924;4.516;2022-08-19T10:11:17;25.00;99.90
24408;DHT22;12542;50.924;4.516;2022-08-19T10:13:48;25.20;99.90
24408;DHT22;12542;50.924;4.516;2022-08-19T10:16:18;25.10;99.90
24408;DHT22;12542;50.924;4.516;2022-08-19T10:18:45;25.10;99.90
24408;DHT22;12542;50.924;4.516;2022-08-19T10:21:32;25.30;99.90
24408;DHT22;12542;50.924;4.516;2022-08-19T10:24:04;25.40;99.90
24408;DHT22;12542;50.924;4.516;2022-08-19T10:26:34;25.50;99.90
24408;DHT22;12542;50.924;4.516;2022-08-19T10:29:01;25.50;99.90
24408;DHT22;12542;50.924;4.516;2022-08-19T10:31:29;25.70;99.90
24408;DHT22;12542;50.924;4.516;2022-08-19T10:33:56;25.80;99.90
24408;DHT22;12542;50.924;4.516;2022-08-19T10:36:31;26.00;99.90
24408;DHT22;12542;50.924;4.516;2022-08-19T10:39:00;26.00;99.90
24408;DHT22;12542;50.924;4.516;2022-08-19T10:41:34;26.20;99.90
24408;DHT22;12542;50.924;4.516;2022-08-19T10:44:06;26.30;99.90
24408;DHT22;12542;50.924;4.516;2022-08-19T10:46:35;26.20;99.90
24408;DHT22;12542;50.924;4.516;2022-08-19T10:49:02;26.30;99.90
24408;DHT22;12542;50.924;4.516;2022-08-19T10:51:28;26.40;99.90
24408;DHT22;12542;50.924;4.516;2022-08-19T10:54:12;26.60;99.90
24408;DHT22;12542;50.924;4.516;2022-08-19T10:56:38;26.60;99.90
24408;DHT22;12542;50.924;4.516;2022-08-19T10:59:29;26.80;99.90
24408;DHT22;12542;50.924;4.516;2022-08-19T11:02:00;27.40;99.90
24408;DHT22;12542;50.924;4.516;2022-08-19T11:04:26;26.80;99.90
24408;DHT22;12542;50.924;4.516;2022-08-19T11:06:52;26.70;99.90
24408;DHT22;12542;50.924;4.516;2022-08-19T11:09:21;26.80;99.90
24408;DHT22;12542;50.924;4.516;2022-08-19T11:11:51;26.80;99.90
24408;DHT22;12542;50.924;4.516;2022-08-19T11:14:20;26.70;99.90
24408;DHT22;12542;50.924;4.516;2022-08-19T11:16:48;26.70;99.90
24408;DHT22;12542;50.924;4.516;2022-08-19T11:19:15;26.40;99.90
24408;DHT22;12542;50.924;4.516;2022-08-19T11:21:46;26.40;99.90
24408;DHT22;12542;50.924;4.516;2022-08-19T11:24:16;26.00;99.90
24408;DHT22;12542;50.924;4.516;2022-08-19T11:26:43;26.10;99.90
24408;DHT22;12542;50.924;4.516;2022-08-19T11:29:11;26.10;99.90
24408;DHT22;12542;50.924;4.516;2022-08-19T11:31:40;26.10;99.90
24408;DHT22;12542;50.924;4.516;2022-08-19T11:34:08;26.20;99.90
24408;DHT22;12542;50.924;4.516;2022-08-19T11:36:37;25.90;99.90
24408;DHT22;12542;50.924;4.516;2022-08-19T11:39:05;25.80;99.90
24408;DHT22;12542;50.924;4.516;2022-08-19T11:41:32;25.70;99.90
24408;DHT22;12542;50.924;4.516;2022-08-19T11:44:00;25.70;99.90
24408;DHT22;12542;50.924;4.516;2022-08-19T11:46:27;25.50;99.90
24408;DHT22;12542;50.924;4.516;2022-08-19T11:48:56;25.80;99.90
24408;DHT22;12542;50.924;4.516;2022-08-19T11:51:24;25.90;99.90
24408;DHT22;12542;50.924;4.516;2022-08-19T11:53:51;26.10;99.90
24408;DHT22;12542;50.924;4.516;2022-08-19T11:56:20;26.30;99.90
24408;DHT22;12542;50.924;4.516;2022-08-19T11:58:48;26.50;99.90
24408;DHT22;12542;50.924;4.516;2022-08-19T12:01:17;26.60;99.90
24408;DHT22;12542;50.924;4.516;2022-08-19T12:03:45;26.50;99.90
24408;DHT22;12542;50.924;4.516;2022-08-19T12:06:20;26.50;99.90
24408;DHT22;12542;50.924;4.516;2022-08-19T12:08:49;26.50;99.90
24408;DHT22;12542;50.924;4.516;2022-08-19T12:11:15;26.60;99.90
24408;DHT22;12542;50.924;4.516;2022-08-19T12:13:41;26.50;99.90
24408;DHT22;12542;50.924;4.516;2022-08-19T12:16:15;26.70;99.90
24408;DHT22;12542;50.924;4.516;2022-08-19T12:18:42;26.60;99.90
24408;DHT22;12542;50.924;4.516;2022-08-19T12:21:12;26.70;99.90
24408;DHT22;12542;50.924;4.516;2022-08-19T12:23:40;27.00;99.90
24408;DHT22;12542;50.924;4.516;2022-08-19T12:26:05;27.90;99.90
24408;DHT22;12542;50.924;4.516;2022-08-19T12:28:31;27.50;99.90
24408;DHT22;12542;50.924;4.516;2022-08-19T12:30:57;27.60;99.90
24408;DHT22;12542;50.924;4.516;2022-08-19T12:33:23;27.70;99.90
24408;DHT22;12542;50.924;4.516;2022-08-19T12:35:51;27.80;99.90
24408;DHT22;12542;50.924;4.516;2022-08-19T12:38:18;28.20;99.90
24408;DHT22;12542;50.924;4.516;2022-08-19T12:40:47;28.20;99.90
24408;DHT22;12542;50.924;4.516;2022-08-19T12:43:14;28.30;99.90
24408;DHT22;12542;50.924;4.516;2022-08-19T12:45:42;28.20;99.90
24408;DHT22;12542;50.924;4.516;2022-08-19T12:48:09;27.90;99.90
24408;DHT22;12542;50.924;4.516;2022-08-19T12:50:35;27.90;99.90
24408;DHT22;12542;50.924;4.516;2022-08-19T12:53:01;27.80;99.90
24408;DHT22;12542;50.924;4.516;2022-08-19T12:55:29;27.90;99.90
24408;DHT22;12542;50.924;4.516;2022-08-19T12:57:55;28.00;99.90
24408;DHT22;12542;50.924;4.516;2022-08-19T13:00:22;28.10;99.90
24408;DHT22;12542;50.924;4.516;2022-08-19T13:02:51;28.30;99.90
24408;DHT22;12542;50.924;4.516;2022-08-19T13:05:22;28.60;99.90
24408;DHT22;12542;50.924;4.516;2022-08-19T13:07:50;28.70;99.90
24408;DHT22;12542;50.924;4.516;2022-08-19T13:10:18;28.70;99.90
24408;DHT22;12542;50.924;4.516;2022-08-19T13:12:46;28.80;99.90
24408;DHT22;12542;50.924;4.516;2022-08-19T13:15:13;28.60;99.90
24408;DHT22;12542;50.924;4.516;2022-08-19T13:17:39;28.50;99.90
24408;DHT22;12542;50.924;4.516;2022-08-19T13:20:09;28.80;99.90
24408;DHT22;12542;50.924;4.516;2022-08-19T13:22:36;28.80;99.90
24408;DHT22;12542;50.924;4.516;2022-08-19T13:25:09;28.70;99.90
24408;DHT22;12542;50.924;4.516;2022-08-19T13:27:40;28.50;99.90
24408;DHT22;12542;50.924;4.516;2022-08-19T13:30:08;28.50;99.90
24408;DHT22;12542;50.924;4.516;2022-08-19T13:32:53;28.30;99.90
24408;DHT22;12542;50.924;4.516;2022-08-19T13:35:38;28.10;99.90
24408;DHT22;12542;50.924;4.516;2022-08-19T13:38:05;28.10;99.90
24408;DHT22;12542;50.924;4.516;2022-08-19T13:40:36;28.10;99.90
24408;DHT22;12542;50.924;4.516;2022-08-19T13:43:05;28.40;99.90
24408;DHT22;12542;50.924;4.516;2022-08-19T13:45:33;28.70;99.90
24408;DHT22;12542;50.924;4.516;2022-08-19T13:48:04;29.20;99.90
24408;DHT22;12542;50.924;4.516;2022-08-19T13:50:37;29.40;99.40
24408;DHT22;12542;50.924;4.516;2022-08-19T13:53:03;29.70;99.70
24408;DHT22;12542;50.924;4.516;2022-08-19T13:55:30;30.20;98.60
24408;DHT22;12542;50.924;4.516;2022-08-19T13:57:59;30.40;97.30
24408;DHT22;12542;50.924;4.516;2022-08-19T14:00:32;30.40;97.20
24408;DHT22;12542;50.924;4.516;2022-08-19T14:02:58;30.40;97.00
24408;DHT22;12542;50.924;4.516;2022-08-19T14:05:26;30.00;97.30
24408;DHT22;12542;50.924;4.516;2022-08-19T14:07:53;29.70;97.80
24408;DHT22;12542;50.924;4.516;2022-08-19T14:10:20;29.40;98.30
24408;DHT22;12542;50.924;4.516;2022-08-19T14:12:46;29.20;98.60
24408;DHT22;12542;50.924;4.516;2022-08-19T14:15:13;29.20;99.40
24408;DHT22;12542;50.924;4.516;2022-08-19T14:17:41;29.60;98.50
24408;DHT22;12542;50.924;4.516;2022-08-19T14:20:12;29.70;97.60
24408;DHT22;12542;50.924;4.516;2022-08-19T14:22:40;29.50;98.20
24408;DHT22;12542;50.924;4.516;2022-08-19T14:25:09;28.80;98.80
24408;DHT22;12542;50.924;4.516;2022-08-19T14:27:36;28.70;99.30
24408;DHT22;12542;50.924;4.516;2022-08-19T14:30:05;28.50;99.90
24408;DHT22;12542;50.924;4.516;2022-08-19T14:32:32;28.50;99.90
24408;DHT22;12542;50.924;4.516;2022-08-19T14:35:01;28.40;99.90
24408;DHT22;12542;50.924;4.516;2022-08-19T14:37:27;28.10;99.90
24408;DHT22;12542;50.924;4.516;2022-08-19T14:39:55;27.60;99.90
24408;DHT22;12542;50.924;4.516;2022-08-19T14:42:23;27.00;99.90
24408;DHT22;12542;50.924;4.516;2022-08-19T14:44:49;26.70;99.90
24408;DHT22;12542;50.924;4.516;2022-08-19T14:47:17;26.60;99.90
24408;DHT22;12542;50.924;4.516;2022-08-19T14:49:45;26.50;99.90
24408;DHT22;12542;50.924;4.516;2022-08-19T14:52:11;26.40;99.90
24408;DHT22;12542;50.924;4.516;2022-08-19T14:54:36;26.30;99.90
24408;DHT22;12542;50.924;4.516;2022-08-19T14:57:04;26.30;99.90
24408;DHT22;12542;50.924;4.516;2022-08-19T14:59:34;26.40;99.90
24408;DHT22;12542;50.924;4.516;2022-08-19T15:02:00;26.60;99.90
24408;DHT22;12542;50.924;4.516;2022-08-19T15:04:25;26.70;99.90
24408;DHT22;12542;50.924;4.516;2022-08-19T15:06:51;26.60;99.90
24408;DHT22;12542;50.924;4.516;2022-08-19T15:09:19;26.60;99.90
24408;DHT22;12542;50.924;4.516;2022-08-19T15:11:45;26.80;99.90
24408;DHT22;12542;50.924;4.516;2022-08-19T15:14:13;26.70;99.90
24408;DHT22;12542;50.924;4.516;2022-08-19T15:16:40;26.80;99.90
24408;DHT22;12542;50.924;4.516;2022-08-19T15:19:07;26.90;99.90
24408;DHT22;12542;50.924;4.516;2022-08-19T15:21:33;26.90;99.90
24408;DHT22;12542;50.924;4.516;2022-08-19T15:24:03;26.70;99.90
24408;DHT22;12542;50.924;4.516;2022-08-19T15:26:30;26.70;99.90
24408;DHT22;12542;50.924;4.516;2022-08-19T15:28:58;26.60;99.90
24408;DHT22;12542;50.924;4.516;2022-08-19T15:31:24;26.70;99.90
24408;DHT22;12542;50.924;4.516;2022-08-19T15:33:53;26.80;99.90
24408;DHT22;12542;50.924;4.516;2022-08-19T15:36:22;26.80;99.90
24408;DHT22;12542;50.924;4.516;2022-08-19T15:38:49;26.80;99.90
24408;DHT22;12542;50.924;4.516;2022-08-19T15:41:20;26.90;99.90
24408;DHT22;12542;50.924;4.516;2022-08-19T15:43:58;27.00;99.90
24408;DHT22;12542;50.924;4.516;2022-08-19T15:46:27;26.80;99.90
24408;DHT22;12542;50.924;4.516;2022-08-19T15:48:54;26.90;99.90
24408;DHT22;12542;50.924;4.516;2022-08-19T15:51:23;26.80;99.90